Latest Weather Observations for Kanagulk

IDV60801

Issued at 5:31 pm EDT Monday 26 January 2015 (issued every 30 minutes, with the page automatically refreshed every 10 minutes)

About weather observations | Map of weather stations | Latest weather observations for VIC | Other Formats
Station Details ID: 079097 Name: KANAGULK Lat: -37.12 Lon: 141.80 Height: 188.8 m
Data from the previous 72 hours. | See also: Recent months at Kanagulk
Date/Time
EDT
Temp
°C
App
Temp
°C
Dew
Point
Rel
Hum
%
Delta-T
°C
Wind Press
QNH
hPa
Press
MSL
hPa
Rain
since 9 am
mm
Dir
 
Spd
km/h
Gust
km/h
Spd
kts
Gust
kts
26/05:30pm 18.3 12.9 4.5 40 6.6 S 22 35 12 19 1016.1 1015.4 0.0
26/05:00pm 18.8 12.9 3.8 37 7.1 SSE 24 35 13 19 1016.1 1015.4 0.0
26/04:30pm 19.1 13.5 3.3 35 7.5 SSE 22 30 12 16 1016.1 1015.4 0.0
26/04:00pm 19.9 14.9 3.6 34 7.8 SSE 19 30 10 16 1016.1 1015.4 0.0
26/03:30pm 19.2 13.2 3.4 35 7.5 SSE 24 35 13 19 1016.4 1015.7 0.0
26/03:00pm 19.9 14.7 2.7 32 8.1 SSW 19 28 10 15 1016.3 1015.6 0.0
26/02:30pm 18.8 13.1 2.6 34 7.5 SSW 22 35 12 19 1016.5 1015.8 0.0
26/02:00pm 19.2 13.9 2.1 32 7.9 SSW 19 39 10 21 1016.6 1015.9 0.0
26/01:30pm 19.9 14.4 1.8 30 8.3 S 20 32 11 17 1016.8 1016.1 0.0
26/01:00pm 18.4 13.9 2.3 34 7.4 SW 15 26 8 14 1017.2 1016.5 0.0
26/12:30pm 19.1 14.7 2.5 33 7.7 SSE 15 28 8 15 1017.4 1016.7 0.0
26/12:00pm 17.1 12.4 3.1 39 6.5 S 17 30 9 16 1017.6 1016.9 0.0
26/11:30am 18.1 13.0 2.8 36 7.1 SSW 19 30 10 16 1017.7 1017.1 0.0
26/11:00am 15.7 12.3 4.1 46 5.4 SW 11 20 6 11 1017.9 1017.3 0.0
26/10:30am 15.7 11.1 3.5 44 5.6 SSW 17 28 9 15 1018.1 1017.5 0.0
26/10:00am 15.7 11.5 3.8 45 5.5 SSW 15 22 8 12 1018.1 1017.5 0.0
26/09:30am 15.1 11.0 4.5 49 5.0 SSE 15 24 8 13 1018.1 1017.5 0.0
26/09:00am 14.3 10.7 6.6 60 3.8 S 15 20 8 11 1018.0 1017.4 0.0
26/08:30am 12.9 9.7 6.7 66 3.0 SSW 13 17 7 9 1017.9 1017.3 0.0
26/08:00am 11.7 9.1 7.6 76 2.0 SSW 11 15 6 8 1017.4 1016.7 0.0
26/07:30am 10.7 8.7 7.0 78 1.8 SSW 7 11 4 6 1017.0 1016.3 0.0
26/07:00am 10.7 8.7 7.0 78 1.8 SSW 7 11 4 6 1016.6 1015.9 0.0
26/06:30am 10.6 8.8 7.3 80 1.6 SSW 6 9 3 5 1016.4 1015.7 0.0
26/06:00am 10.6 9.0 7.8 83 1.4 SSW 6 9 3 5 1016.0 1015.3 0.0
26/05:30am 10.4 7.5 8.0 85 1.2 SSW 13 20 7 11 1015.7 1015.0 0.0
26/05:00am 9.5 8.1 7.4 87 1.0 SSW 4 6 2 3 1015.3 1014.6 0.0
26/04:30am 9.8 7.6 7.9 88 0.9 SW 9 9 5 5 1015.3 1014.6 0.0
26/04:00am 8.9 7.2 7.5 91 0.7 SW 6 9 3 5 1015.2 1014.5 0.0
26/03:30am 8.3 7.5 6.6 89 0.8 CALM 0 0 0 0 1015.2 1014.5 0.0
26/03:00am 8.9 8.1 6.5 85 1.1 CALM 0 0 0 0 1015.0 1014.3 0.0
26/02:30am 9.7 8.6 6.8 82 1.4 W 2 7 1 4 1015.0 1014.3 0.0
26/02:00am 10.0 9.3 7.1 82 1.4 CALM 0 0 0 0 1015.0 1014.3 0.0
26/01:30am 9.5 8.7 6.6 82 1.4 CALM 0 0 0 0 1015.0 1014.3 0.0
26/01:00am 10.3 9.5 6.5 77 1.8 CALM 0 0 0 0 1015.0 1014.3 0.0
26/12:30am 10.9 9.0 6.6 75 2.0 SSW 6 9 3 5 1014.9 1014.2 0.0
26/12:00am 11.1 8.5 6.3 72 2.3 SW 9 11 5 6 1015.0 1014.3 0.0
 
Date/Time
EDT
Temp
°C
App
Temp
°C
Dew
Point
Rel
Hum
%
Delta-T
°C
Wind Press
QNH
hPa
Press
MSL
hPa
Rain
since 9 am
mm
Dir
 
Spd
km/h
Gust
km/h
Spd
kts
Gust
kts
25/11:30pm 11.6 9.0 6.1 69 2.6 SSW 9 13 5 7 1014.9 1014.2 0.0
25/11:00pm 12.8 9.5 6.2 64 3.2 SSW 13 20 7 11 1014.7 1014.0 0.0
25/10:30pm 13.5 10.9 6.1 61 3.6 SSW 9 15 5 8 1014.6 1013.9 0.0
25/10:00pm 13.6 10.2 5.7 59 3.8 S 13 20 7 11 1014.4 1013.7 0.0
25/09:30pm 13.4 10.0 5.8 60 3.6 S 13 19 7 10 1014.0 1013.3 0.0
25/09:00pm 13.5 10.4 5.7 59 3.7 SSW 11 17 6 9 1013.6 1012.9 0.0
25/08:30pm 14.3 10.1 5.9 57 4.0 SSW 17 26 9 14 1013.4 1012.7 0.0
25/08:00pm 15.6 10.7 5.2 50 5.0 SW 20 30 11 16 1013.0 1012.4 0.0
25/07:30pm 16.3 11.1 5.6 49 5.2 SW 22 32 12 17 1012.7 1012.0 0.0
25/07:00pm 17.4 11.0 5.4 45 5.8 SW 28 39 15 21 1012.3 1011.6 0.0
25/06:30pm 18.7 13.0 4.8 40 6.8 SW 24 41 13 22 1011.9 1011.2 0.0
25/06:00pm 17.4 11.3 4.7 43 6.1 SW 26 39 14 21 1011.8 1011.1 0.0
25/05:30pm 19.1 14.1 4.5 38 7.1 SW 20 35 11 19 1011.4 1010.7 0.0
25/05:00pm 19.0 13.0 3.6 36 7.3 SW 24 35 13 19 1011.2 1010.5 0.0
25/04:30pm 20.1 14.6 4.2 35 7.7 WSW 22 39 12 21 1011.3 1010.6 0.0
25/04:00pm 19.7 15.0 6.1 41 6.8 WSW 20 35 11 19 1011.6 1010.9 0.0
25/03:30pm 19.3 13.9 6.4 43 6.5 WSW 24 43 13 23 1011.6 1010.9 0.0
25/03:00pm 17.4 11.5 6.0 47 5.6 SW 26 41 14 22 1011.6 1010.9 0.0
25/02:30pm 18.3 12.9 4.5 40 6.6 WSW 22 35 12 19 1011.3 1010.6 0.0
25/02:00pm 18.2 13.3 5.1 42 6.4 WSW 20 35 11 19 1011.4 1010.7 0.0
25/01:30pm 18.1 13.3 4.7 41 6.5 WSW 19 32 10 17 1011.4 1010.7 0.0
25/01:00pm 18.6 14.1 6.8 46 6.0 WSW 20 30 11 16 1011.3 1010.6 0.0
25/12:30pm 16.7 12.0 5.9 49 5.3 WSW 20 33 11 18 1011.2 1010.5 0.0
25/12:00pm 16.5 11.8 6.1 50 5.1 WSW 20 33 11 18 1011.2 1010.5 0.0
25/11:30am 16.5 12.1 7.2 54 4.7 SW 20 30 11 16 1011.2 1010.5 0.0
25/11:00am 15.7 11.5 7.5 58 4.1 WSW 19 32 10 17 1011.3 1010.6 0.0
25/10:30am 15.6 11.0 6.3 54 4.6 WSW 20 35 11 19 1010.9 1010.2 0.0
25/10:00am 14.6 10.3 6.9 60 3.8 WSW 19 28 10 15 1010.8 1010.1 0.0
25/09:30am 14.5 11.0 8.7 68 3.0 WSW 17 28 9 15 1010.4 1009.7 0.0
25/09:00am 13.5 10.8 9.0 74 2.3 WSW 13 20 7 11 1010.2 1009.5 1.0
25/08:30am 12.9 10.9 10.1 83 1.5 WSW 11 19 6 10 1009.6 1008.9 1.0
25/08:00am 12.0 11.0 10.9 93 0.6 WSW 7 17 4 9 1009.2 1008.5 1.0
25/07:30am 11.2 10.4 10.9 98 0.2 W 6 11 3 6 1008.8 1008.1 1.0
25/07:00am 10.4 9.3 9.9 97 0.3 W 6 9 3 5 1008.2 1007.4 1.0
25/06:30am 10.3 9.1 9.4 94 0.5 W 6 9 3 5 1008.0 1007.2 1.0
25/06:00am 10.4 9.0 9.0 91 0.7 WSW 6 11 3 6 1007.4 1006.7 1.0
25/05:30am 11.3 8.7 9.2 87 1.1 SW 13 19 7 10 1007.3 1006.6 1.0
25/05:00am 12.2 9.0 10.1 87 1.1 SW 17 28 9 15 1007.0 1006.3 1.0
25/04:30am 12.3 10.5 12.0 98 0.2 SW 13 20 7 11 1006.6 1005.9 1.0
25/04:00am 12.2 11.5 12.0 99 0.1 WSW 7 15 4 8 1006.7 1006.0 1.0
25/03:30am 12.3 11.2 12.1 99 0.1 WSW 9 17 5 9 1006.7 1006.0 1.0
25/03:00am 13.0 11.4 12.8 99 0.1 WSW 13 24 7 13 1006.7 1006.0 1.0
25/02:30am 13.5 12.5 13.3 99 0.1 W 11 24 6 13 1006.6 1005.9 0.8
25/02:00am 13.6 12.6 13.4 99 0.1 W 11 22 6 12 1006.3 1005.6 0.4
25/01:30am 13.9 12.6 13.6 98 0.2 W 13 28 7 15 1006.5 1005.8 0.0
25/01:00am 14.3 13.1 12.7 90 0.9 WSW 11 20 6 11 1006.2 1005.5 0.0
25/12:30am 15.5 14.1 12.1 80 1.9 W 11 20 6 11 1006.2 1005.5 0.0
25/12:00am 15.8 13.5 11.6 76 2.3 W 15 24 8 13 1006.0 1005.3 0.0
 
Date/Time
EDT
Temp
°C
App
Temp
°C
Dew
Point
Rel
Hum
%
Delta-T
°C
Wind Press
QNH
hPa
Press
MSL
hPa
Rain
since 9 am
mm
Dir
 
Spd
km/h
Gust
km/h
Spd
kts
Gust
kts
24/11:30pm 16.1 14.8 11.3 73 2.6 W 9 15 5 8 1006.0 1005.3 0.0
24/11:00pm 18.3 15.3 10.7 61 4.1 W 17 33 9 18 1005.9 1005.2 0.0
24/10:30pm 18.2 15.4 10.1 59 4.3 WNW 15 24 8 13 1005.7 1005.0 0.0
24/10:00pm 18.4 15.5 9.5 56 4.7 WNW 15 24 8 13 1005.5 1004.8 0.0
24/09:30pm 19.1 15.3 9.0 52 5.3 W 19 35 10 19 1005.2 1004.5 0.0
24/09:00pm 19.6 15.9 8.0 47 6.1 W 17 32 9 17 1004.7 1004.0 0.0
24/08:30pm 20.1 16.4 8.1 46 6.3 W 17 30 9 16 1004.4 1003.7 0.0
24/08:00pm 21.0 17.0 8.3 44 6.7 W 19 37 10 20 1004.2 1003.5 0.0
24/07:30pm 22.6 18.8 7.6 38 7.9 W 17 39 9 21 1003.9 1003.2 0.0
24/07:00pm 23.5 19.1 7.6 36 8.4 W 20 39 11 21 1003.7 1002.9 0.0
24/06:30pm 24.5 19.9 8.0 35 8.8 WNW 22 37 12 20 1003.6 1002.8 0.0
24/06:00pm 25.4 21.0 7.5 32 9.6 W 20 35 11 19 1003.5 1002.7 0.0
24/05:30pm 25.9 21.7 8.4 33 9.5 W 20 37 11 20 1003.3 1002.5 0.0
24/05:00pm 26.1 22.1 9.0 34 9.4 W 20 39 11 21 1003.4 1002.6 0.0
24/04:30pm 26.9 23.0 9.3 33 9.8 WNW 20 37 11 20 1003.7 1002.9 0.0
24/04:00pm 26.0 21.9 8.0 32 9.8 W 19 30 10 16 1003.8 1003.0 0.0
24/03:30pm 26.0 21.5 8.5 33 9.5 W 22 37 12 20 1004.1 1003.4 0.0
24/03:00pm 25.7 21.7 8.2 33 9.5 W 19 33 10 18 1004.3 1003.6 0.0
24/02:30pm 25.4 22.0 7.5 32 9.5 WNW 15 28 8 15 1004.6 1003.9 0.0
24/02:00pm 24.8 20.6 7.4 33 9.3 WNW 19 32 10 17 1005.1 1004.4 0.0
24/01:30pm 23.7 19.8 7.3 35 8.6 W 17 28 9 15 1005.5 1004.8 0.0
24/01:00pm 23.2 20.2 7.7 37 8.2 W 13 26 7 14 1005.7 1005.0 0.0
24/12:30pm 22.3 18.6 8.1 40 7.5 W 17 28 9 15 1006.2 1005.5 0.0
24/12:00pm 20.9 18.0 8.2 44 6.7 W 13 26 7 14 1006.4 1005.7 0.0
24/11:30am 19.6 16.7 8.0 47 6.0 WSW 13 20 7 11 1006.8 1006.1 0.0
24/11:00am 19.2 16.3 8.2 49 5.7 W 13 26 7 14 1007.2 1006.5 0.0
24/10:30am 17.1 14.6 8.3 56 4.5 WSW 11 19 6 10 1007.7 1006.9 0.0
24/10:00am 17.6 14.8 8.7 56 4.6 WSW 13 24 7 13 1007.7 1006.9 0.0
24/09:30am 16.4 14.3 9.6 64 3.6 WSW 11 17 6 9 1007.7 1006.9 0.0
24/09:00am 15.9 14.4 11.9 77 2.2 W 11 17 6 9 1007.5 1006.8 0.0
24/08:30am 14.4 13.8 13.4 94 0.6 WSW 9 13 5 7 1007.4 1006.7 0.0
24/08:00am 12.6 12.0 12.4 99 0.1 WSW 7 11 4 6 1007.3 1006.6 0.0
24/07:30am 11.2 11.5 11.0 99 0.1 CALM 0 0 0 0 1007.1 1006.4 0.0
24/07:00am 9.9 9.9 9.8 99 0.1 CALM 0 0 0 0 1007.0 1006.3 0.0
24/06:30am 10.0 9.6 9.9 99 0.1 WSW 2 7 1 4 1006.9 1006.2 0.0
24/06:00am 9.7 9.6 9.6 99 0.1 CALM 0 0 0 0 1006.6 1005.9 0.0
24/05:30am 10.5 10.6 10.3 99 0.1 CALM 0 0 0 0 1006.6 1005.9 0.0
24/05:00am 10.7 10.5 10.4 98 0.2 WSW 2 7 1 4 1006.5 1005.8 0.0
24/04:30am 10.9 10.3 10.3 96 0.3 WSW 4 7 2 4 1006.5 1005.8 0.0
24/04:00am 11.2 10.0 10.3 94 0.5 WSW 7 7 4 4 1006.6 1005.9 0.0
24/03:30am 11.7 10.6 10.6 93 0.6 WSW 7 9 4 5 1006.7 1006.0 0.0
24/03:00am 12.1 11.0 10.7 91 0.7 SW 7 9 4 5 1006.8 1006.1 0.0
24/02:30am 12.4 11.0 10.8 90 0.8 SW 9 11 5 6 1007.1 1006.4 0.0
24/02:00am 12.8 11.8 10.9 88 1.0 SSW 7 11 4 6 1007.4 1006.7 0.0
24/01:30am 13.5 11.8 11.2 86 1.2 SSW 11 15 6 8 1007.7 1006.9 0.0
24/01:00am 13.9 12.6 11.2 84 1.4 S 9 13 5 7 1008.0 1007.2 0.0
24/12:30am 14.2 12.5 11.2 82 1.6 S 11 13 6 7 1008.2 1007.4 0.0
24/12:00am 14.7 12.6 11.3 80 1.8 S 13 17 7 9 1008.2 1007.4 0.0
 
Date/Time
EDT
Temp
°C
App
Temp
°C
Dew
Point
Rel
Hum
%
Delta-T
°C
Wind Press
QNH
hPa
Press
MSL
hPa
Rain
since 9 am
mm
Dir
 
Spd
km/h
Gust
km/h
Spd
kts
Gust
kts
23/11:30pm 15.1 12.6 11.1 77 2.2 S 15 19 8 10 1008.4 1007.6 0.0
23/11:00pm 15.8 13.7 11.2 74 2.5 SSE 13 19 7 10 1008.7 1008.0 0.0
23/10:30pm 16.2 13.3 10.9 71 2.9 SSE 17 22 9 12 1008.5 1007.8 0.0
23/10:00pm 16.8 13.6 11.3 70 3.0 SSE 19 24 10 13 1008.4 1007.6 0.0
23/09:30pm 18.1 15.7 11.4 65 3.7 SSW 15 22 8 12 1008.0 1007.2 0.0
23/09:00pm 18.9 15.5 11.2 61 4.2 S 20 28 11 15 1007.5 1006.8 0.0
23/08:30pm 20.1 16.7 11.3 57 4.9 SSW 20 30 11 16 1007.2 1006.5 0.0
23/08:00pm 21.9 18.6 11.6 52 5.8 SSW 20 30 11 16 1006.9 1006.2 0.0
23/07:30pm 23.5 19.9 10.6 44 7.2 SSW 20 30 11 16 1006.6 1005.9 0.0
23/07:00pm 25.1 21.0 8.6 35 9.0 SSW 20 30 11 16 1006.5 1005.8 0.0
23/06:30pm 26.0 22.4 8.5 33 9.5 SSW 17 26 9 14 1006.3 1005.6 0.0
23/06:00pm 26.6 22.2 7.6 30 10.3 SW 20 32 11 17 1006.2 1005.5 0.0

Other Formats:

Comma delimited format used in spreadsheet applications
http://www.bom.gov.au/fwo/IDV60801/IDV60801.95827.axf

JavaScript Object Notation format (JSON) in row-major order
http://www.bom.gov.au/fwo/IDV60801/IDV60801.95827.json